createdAt,value
2018-09-29T00:00:58.939Z,10.60
2018-09-29T00:04:04.426Z,10.60
2018-09-29T00:07:10.238Z,10.60
2018-09-29T00:10:15.866Z,10.60
2018-09-29T00:13:21.466Z,10.60
2018-09-29T00:16:27.024Z,10.50
2018-09-29T00:19:32.394Z,10.40
2018-09-29T00:22:37.810Z,10.50
2018-09-29T00:25:43.290Z,10.50
2018-09-29T00:28:48.708Z,10.40
2018-09-29T00:31:54.121Z,10.50
2018-09-29T00:34:59.610Z,10.40
2018-09-29T00:38:05.050Z,10.40
2018-09-29T00:41:10.906Z,10.40
2018-09-29T00:44:16.362Z,10.40
2018-09-29T00:47:21.763Z,10.40
2018-09-29T00:50:27.165Z,10.40
2018-09-29T00:53:32.846Z,10.40
2018-09-29T00:56:38.310Z,10.40
2018-09-29T00:59:43.718Z,10.30
2018-09-29T01:02:49.251Z,10.30
2018-09-29T01:05:54.742Z,10.30
2018-09-29T01:09:00.174Z,10.30
2018-09-29T01:12:05.595Z,10.20
2018-09-29T01:15:11.089Z,10.20
2018-09-29T01:18:16.541Z,10.20
2018-09-29T01:21:22.138Z,10.20
2018-09-29T01:24:27.686Z,10.10
2018-09-29T01:27:33.129Z,10.10
2018-09-29T01:30:38.578Z,10.20
2018-09-29T01:33:44.064Z,10.10
2018-09-29T01:36:50.118Z,9.80
2018-09-29T01:39:56.521Z,9.80
2018-09-29T01:43:01.966Z,9.70
2018-09-29T01:46:08.224Z,9.80
2018-09-29T01:49:13.654Z,9.70
2018-09-29T01:52:19.102Z,9.70
2018-09-29T01:55:24.861Z,9.80
2018-09-29T01:58:30.685Z,9.70
2018-09-29T02:01:36.190Z,9.70
2018-09-29T02:04:41.654Z,9.60
2018-09-29T02:07:47.067Z,9.50
2018-09-29T02:10:52.470Z,9.50
2018-09-29T02:13:57.918Z,9.60
2018-09-29T02:17:03.338Z,9.60
2018-09-29T02:20:08.758Z,9.70
2018-09-29T02:23:14.190Z,9.70
2018-09-29T02:26:19.686Z,9.80
2018-09-29T02:29:25.098Z,9.80
2018-09-29T02:32:30.528Z,9.70
2018-09-29T02:35:36.003Z,9.70
2018-09-29T02:38:41.423Z,9.60
2018-09-29T02:41:46.825Z,9.60
2018-09-29T02:44:52.295Z,9.60
2018-09-29T02:47:57.785Z,9.70
2018-09-29T02:51:03.163Z,9.80
2018-09-29T02:54:08.670Z,9.80
2018-09-29T02:57:14.083Z,9.70
2018-09-29T03:00:19.471Z,9.70
2018-09-29T03:03:24.878Z,9.70
2018-09-29T03:06:30.467Z,9.70
2018-09-29T03:09:35.875Z,9.50
2018-09-29T03:12:41.275Z,9.60
2018-09-29T03:15:46.755Z,9.60
2018-09-29T03:18:52.174Z,9.50
2018-09-29T03:21:57.595Z,9.60
2018-09-29T03:25:03.178Z,9.60
2018-09-29T03:28:08.943Z,9.60
2018-09-29T03:31:14.318Z,9.60
2018-09-29T03:34:19.898Z,9.60
2018-09-29T03:37:25.359Z,9.50
2018-09-29T03:40:31.242Z,9.40
2018-09-29T03:43:36.666Z,9.40
2018-09-29T03:46:42.146Z,9.40
2018-09-29T03:49:47.563Z,9.40
2018-09-29T03:52:53.104Z,9.30
2018-09-29T03:55:58.926Z,9.20
2018-09-29T03:59:04.370Z,9.30
2018-09-29T04:02:09.801Z,9.40
2018-09-29T04:05:15.471Z,9.50
2018-09-29T04:08:21.006Z,9.50
2018-09-29T04:11:26.399Z,9.50
2018-09-29T04:14:32.592Z,9.40
2018-09-29T04:17:38.015Z,9.30
2018-09-29T04:20:43.482Z,9.10
2018-09-29T04:23:49.283Z,9.10
2018-09-29T04:26:54.682Z,9.10
2018-09-29T04:30:00.152Z,9.10
2018-09-29T04:33:05.562Z,9.10
2018-09-29T04:36:10.973Z,9.20
2018-09-29T04:39:16.414Z,9.40
2018-09-29T04:42:21.811Z,9.50
2018-09-29T04:45:27.374Z,9.60
2018-09-29T04:48:32.761Z,9.70
2018-09-29T04:51:38.143Z,9.70
2018-09-29T04:54:44.131Z,9.80
2018-09-29T04:57:49.521Z,9.80
2018-09-29T05:00:54.926Z,9.90
2018-09-29T05:04:00.439Z,9.90
2018-09-29T05:07:05.837Z,9.90
2018-09-29T05:10:11.243Z,10.00
2018-09-29T05:13:16.632Z,9.90
2018-09-29T05:16:22.155Z,10.00
2018-09-29T05:19:27.583Z,10.00
2018-09-29T05:22:32.977Z,10.00
2018-09-29T05:25:38.502Z,10.00
2018-09-29T05:28:43.909Z,10.00
2018-09-29T05:31:49.335Z,10.00
2018-09-29T05:34:54.834Z,10.10
2018-09-29T05:38:00.618Z,10.10
2018-09-29T05:41:06.041Z,10.20
2018-09-29T05:44:11.470Z,10.10
2018-09-29T05:47:17.223Z,10.00
2018-09-29T05:50:23.273Z,10.10
2018-09-29T05:53:28.671Z,10.00
2018-09-29T05:56:34.212Z,10.10
2018-09-29T05:59:39.620Z,10.20
2018-09-29T06:02:45.023Z,10.30
2018-09-29T06:05:50.570Z,10.30
2018-09-29T06:08:56.186Z,10.30
2018-09-29T06:12:01.600Z,10.40
2018-09-29T06:15:07.526Z,10.40
2018-09-29T06:18:12.899Z,10.50
2018-09-29T06:21:18.307Z,10.50
2018-09-29T06:24:23.766Z,10.50
2018-09-29T06:27:29.156Z,10.60
2018-09-29T06:30:34.595Z,10.60
2018-09-29T06:33:40.678Z,10.70
2018-09-29T06:36:46.155Z,10.70
2018-09-29T06:39:51.746Z,10.80
2018-09-29T06:42:57.159Z,10.90
2018-09-29T06:46:02.607Z,10.90
2018-09-29T06:49:08.018Z,10.90
2018-09-29T06:52:13.633Z,11.00
2018-09-29T06:55:19.154Z,11.10
2018-09-29T06:58:24.571Z,11.10
2018-09-29T07:01:30.190Z,11.10
2018-09-29T07:04:35.686Z,11.20
2018-09-29T07:07:41.455Z,11.20
2018-09-29T07:10:46.874Z,11.30
2018-09-29T07:13:52.368Z,11.30
2018-09-29T07:16:57.796Z,11.40
2018-09-29T07:20:04.610Z,11.50
2018-09-29T07:23:10.649Z,11.70
2018-09-29T07:26:16.127Z,11.90
2018-09-29T07:29:21.605Z,12.10
2018-09-29T07:32:27.083Z,12.20
2018-09-29T07:35:32.570Z,12.20
2018-09-29T07:38:38.118Z,12.30
2018-09-29T07:41:43.570Z,12.40
2018-09-29T07:44:49.119Z,12.40
2018-09-29T07:47:54.528Z,12.50
2018-09-29T07:50:59.970Z,12.60
2018-09-29T07:54:05.922Z,12.60
2018-09-29T07:57:11.374Z,12.60
2018-09-29T08:00:16.766Z,12.70
2018-09-29T08:03:22.190Z,12.60
2018-09-29T08:06:28.204Z,12.60
2018-09-29T08:09:33.854Z,12.70
2018-09-29T08:12:39.275Z,12.60
2018-09-29T08:15:44.728Z,12.70
2018-09-29T08:18:50.192Z,12.70
2018-09-29T08:21:55.642Z,12.70
2018-09-29T08:25:01.066Z,12.80
2018-09-29T08:28:06.482Z,12.80
2018-09-29T08:31:11.986Z,12.80
2018-09-29T08:34:17.450Z,12.90
2018-09-29T08:37:23.367Z,13.00
2018-09-29T08:40:28.864Z,13.10
2018-09-29T08:43:34.319Z,13.10
2018-09-29T08:46:40.227Z,13.20
2018-09-29T08:49:45.792Z,13.20
2018-09-29T08:52:51.298Z,13.30
2018-09-29T08:55:57.439Z,13.30
2018-09-29T08:59:02.878Z,13.40
2018-09-29T09:02:08.339Z,13.30
2018-09-29T09:05:13.766Z,13.40
2018-09-29T09:08:19.791Z,13.40
2018-09-29T09:11:25.282Z,13.40
2018-09-29T09:14:30.685Z,13.50
2018-09-29T09:17:36.254Z,13.60
2018-09-29T09:20:42.009Z,13.60
2018-09-29T09:23:47.460Z,13.70
2018-09-29T09:26:52.991Z,13.80
2018-09-29T09:29:58.405Z,13.90
2018-09-29T09:33:04.198Z,14.00
2018-09-29T09:36:09.614Z,14.10
2018-09-29T09:39:15.193Z,14.20
2018-09-29T09:42:20.745Z,14.40
2018-09-29T09:45:26.256Z,14.50
2018-09-29T09:48:32.551Z,14.60
2018-09-29T09:51:38.022Z,14.60
2018-09-29T09:54:43.495Z,14.70
2018-09-29T09:57:48.935Z,14.90
2018-09-29T10:01:00.143Z,15.00
2018-09-29T10:04:05.639Z,15.20
2018-09-29T10:07:11.331Z,15.20
2018-09-29T10:10:18.610Z,15.40
2018-09-29T10:13:24.081Z,15.70
2018-09-29T10:16:29.656Z,15.90
2018-09-29T10:19:35.122Z,16.00
2018-09-29T10:22:40.593Z,16.00
2018-09-29T10:25:47.512Z,16.00
2018-09-29T10:28:52.962Z,15.90
2018-09-29T10:31:58.431Z,15.90
2018-09-29T10:35:04.071Z,16.00
2018-09-29T10:38:09.567Z,16.10
2018-09-29T10:41:15.015Z,16.20
2018-09-29T10:44:20.449Z,16.20
2018-09-29T10:47:25.894Z,16.10
2018-09-29T10:50:31.334Z,16.00
2018-09-29T10:53:36.784Z,15.90
2018-09-29T10:56:42.198Z,15.90
2018-09-29T10:59:47.627Z,15.80
2018-09-29T11:02:54.115Z,15.80
2018-09-29T11:05:59.583Z,15.70
2018-09-29T11:09:06.926Z,15.70
2018-09-29T11:12:13.058Z,15.70
2018-09-29T11:15:18.611Z,15.70
2018-09-29T11:18:24.103Z,15.70
2018-09-29T11:21:29.551Z,15.70
2018-09-29T11:24:35.212Z,15.60
2018-09-29T11:27:40.728Z,15.60
2018-09-29T11:30:46.364Z,15.60
2018-09-29T11:33:52.058Z,15.60
2018-09-29T11:36:57.457Z,15.60
2018-09-29T11:40:02.912Z,15.70
2018-09-29T11:43:08.354Z,15.70
2018-09-29T11:46:13.775Z,15.70
2018-09-29T11:49:19.203Z,15.80
2018-09-29T11:52:24.717Z,15.80
2018-09-29T11:55:30.514Z,15.90
2018-09-29T11:58:36.004Z,15.90
2018-09-29T12:01:41.434Z,15.90
2018-09-29T12:04:46.920Z,15.90
2018-09-29T12:07:52.377Z,16.00
2018-09-29T12:10:58.163Z,16.10
2018-09-29T12:14:04.121Z,16.20
2018-09-29T12:17:09.619Z,16.30
2018-09-29T12:20:15.119Z,16.50
2018-09-29T12:23:20.554Z,16.90
2018-09-29T12:26:25.990Z,17.40
2018-09-29T12:29:32.212Z,18.40
2018-09-29T12:32:38.955Z,19.50
2018-09-29T12:35:44.755Z,20.50
2018-09-29T12:38:50.839Z,21.60
2018-09-29T12:41:56.287Z,22.40
2018-09-29T12:45:01.858Z,23.20
2018-09-29T12:48:08.110Z,23.20
2018-09-29T12:51:13.571Z,23.00
2018-09-29T12:54:19.139Z,22.40
2018-09-29T12:57:24.586Z,21.60
2018-09-29T13:00:30.103Z,20.70
2018-09-29T13:03:35.563Z,20.10
2018-09-29T13:06:41.006Z,19.50
2018-09-29T13:09:47.302Z,18.90
2018-09-29T13:12:52.790Z,18.50
2018-09-29T13:15:58.248Z,18.10
2018-09-29T13:19:03.714Z,18.00
2018-09-29T13:22:09.188Z,17.70
2018-09-29T13:25:14.919Z,17.60
2018-09-29T13:28:20.820Z,17.60
2018-09-29T13:31:26.297Z,17.50
2018-09-29T13:34:32.083Z,17.50
2018-09-29T13:37:37.494Z,17.50
2018-09-29T13:40:43.325Z,17.40
2018-09-29T13:43:48.850Z,17.50
2018-09-29T13:46:54.331Z,17.40
2018-09-29T13:50:00.363Z,17.30
2018-09-29T13:53:06.446Z,17.30
2018-09-29T13:56:12.078Z,17.30
2018-09-29T13:59:17.530Z,17.30
2018-09-29T14:02:22.990Z,17.30
2018-09-29T14:05:28.682Z,17.30
2018-09-29T14:08:34.105Z,17.10
2018-09-29T14:11:39.790Z,17.00
2018-09-29T14:14:45.914Z,17.00
2018-09-29T14:17:51.316Z,16.90
2018-09-29T14:20:56.793Z,16.80
2018-09-29T14:24:02.235Z,16.80
2018-09-29T14:27:07.657Z,16.70
2018-09-29T14:30:13.074Z,16.60
2018-09-29T14:33:18.707Z,16.60
2018-09-29T14:36:24.195Z,16.50
2018-09-29T14:39:29.561Z,16.60
2018-09-29T14:42:34.970Z,16.60
2018-09-29T14:45:40.589Z,16.60
2018-09-29T14:48:46.051Z,16.60
2018-09-29T14:51:51.578Z,16.60
2018-09-29T14:54:56.968Z,16.70
2018-09-29T14:58:02.387Z,16.70
2018-09-29T15:01:08.386Z,16.70
2018-09-29T15:04:13.934Z,16.70
2018-09-29T15:07:19.498Z,16.60
2018-09-29T15:10:24.996Z,16.70
2018-09-29T15:13:30.962Z,16.60
2018-09-29T15:16:36.461Z,16.60
2018-09-29T15:19:42.463Z,16.50
2018-09-29T15:22:47.882Z,16.50
2018-09-29T15:26:04.960Z,16.50
2018-09-29T15:29:10.591Z,16.40
2018-09-29T15:32:16.003Z,16.40
2018-09-29T15:35:21.402Z,16.30
2018-09-29T15:38:26.876Z,16.30
2018-09-29T15:41:32.270Z,16.20
2018-09-29T15:44:39.750Z,16.20
2018-09-29T15:47:45.134Z,16.20
2018-09-29T15:50:50.494Z,16.30
2018-09-29T15:53:55.906Z,16.20
2018-09-29T15:57:01.482Z,16.20
2018-09-29T16:00:07.074Z,16.30
2018-09-29T16:03:12.470Z,16.20
2018-09-29T16:06:18.314Z,16.30
2018-09-29T16:09:23.714Z,16.30
2018-09-29T16:12:30.607Z,16.30
2018-09-29T16:15:36.014Z,16.30
2018-09-29T16:18:41.459Z,16.20
2018-09-29T16:21:46.928Z,16.20
2018-09-29T16:24:52.490Z,16.10
2018-09-29T16:27:57.980Z,16.10
2018-09-29T16:31:03.382Z,16.00
2018-09-29T16:34:08.902Z,16.00
2018-09-29T16:37:14.328Z,15.90
2018-09-29T16:40:20.005Z,15.80
2018-09-29T16:43:25.435Z,15.70
2018-09-29T16:46:31.182Z,15.70
2018-09-29T16:49:36.581Z,15.60
2018-09-29T16:52:42.131Z,15.60
2018-09-29T16:55:47.610Z,15.50
2018-09-29T16:58:53.234Z,15.50
2018-09-29T17:01:58.652Z,15.50
2018-09-29T17:05:04.130Z,15.40
2018-09-29T17:08:09.520Z,15.40
2018-09-29T17:11:15.014Z,15.40
2018-09-29T17:14:20.541Z,15.30
2018-09-29T17:17:26.146Z,15.20
2018-09-29T17:20:31.575Z,15.20
2018-09-29T17:23:37.226Z,15.20
2018-09-29T17:26:42.673Z,15.20
2018-09-29T17:29:48.065Z,15.10
2018-09-29T17:32:53.573Z,15.10
2018-09-29T17:35:58.991Z,15.00
2018-09-29T17:39:06.323Z,15.00
2018-09-29T17:42:13.906Z,15.00
2018-09-29T17:45:19.322Z,14.90
2018-09-29T17:48:24.725Z,14.90
2018-09-29T17:51:30.189Z,14.90
2018-09-29T17:54:35.762Z,14.80
2018-09-29T17:57:41.167Z,14.70
2018-09-29T18:00:46.558Z,14.70
2018-09-29T18:03:52.017Z,14.70
2018-09-29T18:06:58.223Z,14.60
2018-09-29T18:10:03.602Z,14.60
2018-09-29T18:13:09.023Z,14.50
2018-09-29T18:16:14.410Z,14.50
2018-09-29T18:19:19.835Z,14.40
2018-09-29T18:22:25.246Z,14.40
2018-09-29T18:25:30.755Z,14.30
2018-09-29T18:28:36.234Z,14.20
2018-09-29T18:31:41.650Z,14.20
2018-09-29T18:34:47.127Z,14.10
2018-09-29T18:37:52.543Z,14.10
2018-09-29T18:40:58.026Z,14.00
2018-09-29T18:44:03.443Z,14.00
2018-09-29T18:47:09.724Z,13.90
2018-09-29T18:50:15.158Z,13.80
2018-09-29T18:53:22.755Z,13.80
2018-09-29T18:56:28.365Z,13.70
2018-09-29T18:59:33.826Z,13.70
2018-09-29T19:02:39.198Z,13.60
2018-09-29T19:05:44.698Z,13.60
2018-09-29T19:08:50.458Z,13.60
2018-09-29T19:11:55.974Z,13.60
2018-09-29T19:15:01.607Z,13.50
2018-09-29T19:18:07.083Z,13.50
2018-09-29T19:21:12.516Z,13.40
2018-09-29T19:24:17.946Z,13.40
2018-09-29T19:27:23.326Z,13.30
2018-09-29T19:30:28.742Z,13.30
2018-09-29T19:33:34.747Z,13.30
2018-09-29T19:36:40.476Z,13.20
2018-09-29T19:39:46.577Z,13.20
2018-09-29T19:42:52.067Z,13.10
2018-09-29T19:45:57.587Z,13.10
2018-09-29T19:49:02.984Z,13.10
2018-09-29T19:52:08.443Z,13.10
2018-09-29T19:55:13.854Z,13.00
2018-09-29T19:58:19.279Z,12.90
2018-09-29T20:01:24.703Z,12.90
2018-09-29T20:04:30.101Z,12.80
2018-09-29T20:07:36.231Z,12.80
2018-09-29T20:10:41.642Z,12.80
2018-09-29T20:13:47.406Z,12.70
2018-09-29T20:16:52.782Z,12.70
2018-09-29T20:19:58.194Z,12.60
2018-09-29T20:23:03.578Z,12.60
2018-09-29T20:26:09.050Z,12.60
2018-09-29T20:29:14.470Z,12.50
2018-09-29T20:32:19.843Z,12.40
2018-09-29T20:35:25.347Z,12.40
2018-09-29T20:38:30.802Z,12.40
2018-09-29T20:41:36.212Z,12.40
2018-09-29T20:44:41.614Z,12.30
2018-09-29T20:47:49.334Z,12.30
2018-09-29T20:50:54.767Z,12.20
2018-09-29T20:54:00.159Z,12.20
2018-09-29T20:57:05.551Z,12.20
2018-09-29T21:00:10.980Z,12.20
2018-09-29T21:03:16.432Z,12.20
2018-09-29T21:06:21.951Z,12.10
2018-09-29T21:09:27.452Z,12.10
2018-09-29T21:12:33.699Z,12.10
2018-09-29T21:15:39.567Z,12.10
2018-09-29T21:18:44.961Z,12.10
2018-09-29T21:21:50.366Z,12.10
2018-09-29T21:24:55.768Z,12.10
2018-09-29T21:28:01.663Z,12.00
2018-09-29T21:31:07.066Z,12.00
2018-09-29T21:34:12.518Z,11.90
2018-09-29T21:37:17.929Z,11.90
2018-09-29T21:40:23.522Z,11.90
2018-09-29T21:43:28.951Z,11.90
2018-09-29T21:46:34.374Z,11.90
2018-09-29T21:49:39.777Z,11.90
2018-09-29T21:52:45.175Z,11.90
2018-09-29T21:55:50.649Z,11.80
2018-09-29T21:58:56.087Z,11.80
2018-09-29T22:02:01.510Z,11.80
2018-09-29T22:05:07.298Z,11.80
2018-09-29T22:08:12.943Z,11.70
2018-09-29T22:11:18.473Z,11.70
2018-09-29T22:14:23.862Z,11.70
2018-09-29T22:17:29.262Z,11.70
2018-09-29T22:20:34.667Z,11.70
2018-09-29T22:23:40.054Z,11.70
2018-09-29T22:26:45.629Z,11.70
2018-09-29T22:29:51.054Z,11.60
2018-09-29T22:32:56.520Z,11.50
2018-09-29T22:36:01.981Z,11.60
2018-09-29T22:39:10.518Z,11.60
2018-09-29T22:42:15.942Z,11.40
2018-09-29T22:45:21.368Z,11.40
2018-09-29T22:48:26.762Z,11.40
2018-09-29T22:51:32.159Z,11.40
2018-09-29T22:54:37.651Z,11.40
2018-09-29T22:57:43.050Z,11.40
2018-09-29T23:00:48.458Z,11.40
2018-09-29T23:03:53.918Z,11.40
2018-09-29T23:06:59.430Z,11.40
2018-09-29T23:10:04.850Z,11.30
2018-09-29T23:13:10.287Z,11.20
2018-09-29T23:16:15.719Z,11.20
2018-09-29T23:19:21.093Z,11.10
2018-09-29T23:22:26.815Z,11.10
2018-09-29T23:25:32.446Z,11.10
2018-09-29T23:28:37.857Z,11.10
2018-09-29T23:31:43.770Z,11.10
2018-09-29T23:34:49.218Z,11.10
2018-09-29T23:37:54.615Z,11.00
2018-09-29T23:41:00.012Z,11.00
2018-09-29T23:44:05.416Z,10.80
2018-09-29T23:47:10.813Z,10.90
2018-09-29T23:50:16.218Z,10.70
2018-09-29T23:53:21.613Z,10.70
2018-09-29T23:56:29.142Z,10.70
2018-09-29T23:59:34.620Z,10.80
